Ride Results

Bago Bush Ride (29-07-2012)
Ride distance: 80.0 km

Outcomes - Bago Bush Ride (29-07-2012)
Division No. of Entries Retired / DNE Completed Withdrawn Ineligible V/O Percentage Completed
HW 12 - 5 4 - 3 41.67%
MW 14 - 11 1 - 2 78.57%
LW 11 - 9 1 - 1 81.82%
JN 1 - 0 1 - - 0.00%
Totals 38 - 25 7 - 6 65.79%
Results - Bago Bush Ride (29-07-2012)
No. Rider Horse Place Time Leg Speeds Total
Km/Hr
H/R bpm
Heavyweight
80 Gary Thomas Ben Mariah 1 6:07:00 14.3, 11.9 13.08 32, 45, 52 (Avg:48)
78 Charles Gauci Charlieville Jack 2 6:53:00 11.8, 11.3 11.62 30, 43, 58 (Avg:50)
83 Craig Smith Marneross Maelaeki 3 7:31:00 11.8, 9.6 10.64 36, 41, 49 (Avg:45)
82 Scott Peters Sharahd Jara 4 7:33:00 11.4, 9.8 10.60 33, 37, 52 (Avg:44)
85 Allan Caslick A'Landell Nikita 5 7:41:00 10.9, 9.9 10.41 39, 44, 48 (Avg:46)
76 Steve Broadbent Foxridge Kalypso King Lame L2 0:00:00 11.8, 9.2 - 35, 46, 42 (Avg:44)
75 Graeme Burchell Delaware Lame L2 0:00:00 10.3, 9.1 - 40, 44, 53 (Avg:48)
81 Jack Johnson Sharahd Chemoss Heart Rate L2 0:00:00 11.4, 9.8 - 32, 43, 64 (Avg:53)
79 Greg Moore Parkview Armageddon Withdrawn L2 0:00:00 - - 37, 45, 44 (Avg:44)
84 Dallas Blakely Rothlynne Sweet Serenade Withdrawn L1 0:00:00 - - 38, 37 (Avg:37)
86 Frank Flissinger Ranjen Spotted Feather Withdrawn L1 0:00:00 - - 34, 50 (Avg:50)
89 Jody Harrison Banfield Paris Withdrawn L1 0:00:00 - - 40, 48 (Avg:48)
Middleweight
39 Ben Hudson Kurrajong Oak 1 5:02:00 18.7, 13.7 15.89 28, 43, 52 (Avg:47)
35 Tracey Hutchinson Beau Val Feodora 1 5:02:00 18.7, 13.7 15.89 38, 49, 47 (Avg:48)
43 Lyall Cameron Master Bobby 3 6:43:00 11.8, 11.9 11.91 30, 50, 54 (Avg:52)
47 Sonya Ruprecht Yahweh-Salih Sir Ibn Gelibene 3 6:43:00 13.4, 10.6 11.91 37, 48, 54 (Avg:51)
45 Narelle Childs Halo Kazaam 5 6:56:00 12.9, 10.4 11.54 34, 42, 51 (Avg:46)
41 Elizabeth Moir Kenya s Gold 6 (BC) 7:19:00 11.9, 10.0 10.93 27, 35, 49 (Avg:42)
48 Judith Burton Woodbourne Mr Brown 7 7:22:00 10.9, 10.7 10.86 31, 36, 55 (Avg:45)
40 Carol Major Saradon 8 7:31:00 11.3, 9.9 10.64 35, 45, 55 (Avg:50)
37 Karen Rhodes Stratfield Ghayth 8 7:31:00 11.3, 9.9 10.64 26, 37, 43 (Avg:40)
42 Monica Majerowski Valinor Park Sakim 10 8:06:00 11.1, 8.8 9.88 36, 40, 43 (Avg:41)
38 Maureen Feltham Fenwick Razoul 11 8:30:00 9.3, 9.4 9.41 33, 45, 50 (Avg:47)
36 Rod Cox Tyson Lame L2 0:00:00 10.3, 8.4 - 33, 45, 56 (Avg:50)
46 Katrina Bodewes Tallawarra Miracle Lame L1 0:00:00 10.3 - 41, 43 (Avg:43)
44 Terry Wood Tallawarra Holly Withdrawn L1 0:00:00 - - 36, 40 (Avg:40)
Lightweight
11 Anne Hills Kerewong Shelfyre 1 6:07:00 16.3, 10.9 13.08 34, 38, 45 (Avg:41)
18 Sharon Foster Sharabel Maleka 2 (BC) 6:07:30 13.8, 12.3 13.06 34, 46, 51 (Avg:48)
12 Sue Todd Shakista 2 6:07:30 13.8, 12.3 13.06 38, 44, 45 (Avg:44)
10 Carol Layton Omani City Smoke 4 6:54:00 11.8, 11.3 11.59 40, 37, 46 (Avg:41)
13 Caroline Windle Sarina Rosetta 5 6:56:00 12.9, 10.4 11.54 31, 44, 56 (Avg:50)
16 Renee Schneider Badia Just Rosie 6 7:22:00 10.9, 10.7 10.86 49, 40, 45 (Avg:42)
21 Antonia Somerville Allyndah Dezynah Vogue 7 7:37:00 12.1, 9.2 10.50 35, 46, 48 (Avg:47)
20 Bianca Porter Phox KEI 8 8:03:00 10.8, 9.1 9.94 36, 41, 46 (Avg:43)
19 Dody Sinfield Jewkes 9 8:10:00 11.0, 8.8 9.80 30, 39, 41 (Avg:40)
14 Libby Jones Prada Kei Lame L2 0:00:00 11.1, 27.9 - 39, 44, 42 (Avg:43)
17 Dianne Brown Sharabel Akaysha Withdrawn L1 0:00:00 - - 37, 39 (Avg:39)
Junior
1 Isaac Majerowski Conderosa Silver Shah Withdrawn L1 0:00:00 - - 38, 42 (Avg:42)